createdAt,value
2022-11-04T00:16:15.137Z,1005.02
2022-11-04T00:35:29.646Z,1004.92
2022-11-04T00:54:43.821Z,1004.88
2022-11-04T01:04:20.758Z,1004.92
2022-11-04T01:13:57.880Z,1004.87
2022-11-04T01:23:35.096Z,1004.83
2022-11-04T01:33:12.334Z,1004.88
2022-11-04T01:42:49.072Z,1004.84
2022-11-04T01:52:26.382Z,1004.81
2022-11-04T02:02:03.698Z,1004.86
2022-11-04T02:11:40.779Z,1004.85
2022-11-04T02:21:17.595Z,1004.54
2022-11-04T02:30:54.370Z,1004.5
2022-11-04T02:40:31.555Z,1004.44
2022-11-04T02:50:09.308Z,1004.77
2022-11-04T02:59:45.994Z,1004.85
2022-11-04T03:09:23.424Z,1004.88
2022-11-04T03:19:00.617Z,1005.08
2022-11-04T03:28:37.458Z,1005.3
2022-11-04T03:38:14.874Z,1005.4
2022-11-04T03:47:51.810Z,1005.56
2022-11-04T03:57:28.803Z,1005.59
2022-11-04T04:07:06.326Z,1005.52
2022-11-04T04:16:45.548Z,1005.33
2022-11-04T04:26:21.181Z,1005.54
2022-11-04T04:35:58.340Z,1005.64
2022-11-04T04:55:12.306Z,1005.85
2022-11-04T05:04:49.155Z,1005.8
2022-11-04T05:14:26.200Z,1005.91
2022-11-04T05:24:03.120Z,1006.1
2022-11-04T05:43:17.241Z,1006.4
2022-11-04T06:02:32.074Z,1006.48
2022-11-04T06:12:09.200Z,1006.46
2022-11-04T06:21:46.262Z,1006.4
2022-11-04T06:31:23.441Z,1006.26
2022-11-04T06:41:00.099Z,1006.32
2022-11-04T06:50:36.761Z,1006.64
2022-11-04T07:00:13.992Z,1007.02
2022-11-04T07:09:51.495Z,1007.27
2022-11-04T07:19:28.550Z,1007.21
2022-11-04T07:29:05.964Z,1007.07
2022-11-04T07:38:43.484Z,1007.3
2022-11-04T07:48:20.731Z,1007.65
2022-11-04T07:57:58.051Z,1008.07
2022-11-04T08:07:35.355Z,1008.03
2022-11-04T08:17:12.521Z,1007.76
2022-11-04T08:26:49.557Z,1007.59
2022-11-04T08:36:26.468Z,1007.22
2022-11-04T08:46:03.990Z,1006.86
2022-11-04T08:55:41.897Z,1006.63
2022-11-04T09:05:18.920Z,1006.86
2022-11-04T09:14:56.510Z,1007.12
2022-11-04T09:24:33.271Z,1007.47
2022-11-04T09:43:47.261Z,1007.75
2022-11-04T09:53:24.761Z,1007.85
2022-11-04T10:03:01.466Z,1007.77
2022-11-04T10:12:38.891Z,1007.7
2022-11-04T10:22:15.852Z,1007.75
2022-11-04T10:31:53.303Z,1007.77
2022-11-04T10:41:30.160Z,1007.78
2022-11-04T10:51:07.018Z,1007.69
2022-11-04T11:10:21.524Z,1007.91
2022-11-04T11:19:58.426Z,1007.94
2022-11-04T11:29:35.840Z,1007.87
2022-11-04T11:39:14.092Z,1007.68
2022-11-04T11:48:55.873Z,1007.74
2022-11-04T12:17:51.402Z,1007.63
2022-11-04T12:27:29.552Z,1007.61
2022-11-04T12:37:06.652Z,1007.71
2022-11-04T12:46:44.084Z,1007.5
2022-11-04T12:56:23.402Z,1007.61
2022-11-04T13:05:57.349Z,1007.75
2022-11-04T13:15:32.264Z,1007.85
2022-11-04T13:25:08.474Z,1007.88
2022-11-04T13:34:44.653Z,1007.94
2022-11-04T13:44:21.728Z,1008.1
2022-11-04T13:53:57.684Z,1008.23
2022-11-04T14:03:34.854Z,1008.42
2022-11-04T14:13:11.547Z,1008.45
2022-11-04T14:22:48.533Z,1008.54
2022-11-04T14:32:25.061Z,1008.53
2022-11-04T14:42:01.648Z,1008.48
2022-11-04T14:51:38.404Z,1008.61
2022-11-04T15:01:14.641Z,1008.66
2022-11-04T15:10:51.612Z,1008.71
2022-11-04T15:20:28.048Z,1008.76
2022-11-04T15:30:04.725Z,1008.89
2022-11-04T15:39:41.333Z,1009.02
2022-11-04T15:49:17.758Z,1009.16
2022-11-04T15:58:54.454Z,1009.22
2022-11-04T16:08:30.879Z,1009.35
2022-11-04T16:18:07.288Z,1009.45
2022-11-04T16:27:43.957Z,1009.67
2022-11-04T16:46:56.786Z,1009.97
2022-11-04T16:56:33.696Z,1009.98
2022-11-04T17:06:10.252Z,1009.95
2022-11-04T17:15:46.901Z,1009.99
2022-11-04T17:25:23.644Z,1010.04
2022-11-04T17:35:00.155Z,1010.03
2022-11-04T17:44:37.174Z,1010.17
2022-11-04T17:54:14.130Z,1010.23
2022-11-04T18:03:51.180Z,1010.34
2022-11-04T18:13:28.208Z,1010.43
2022-11-04T18:23:05.132Z,1010.44
2022-11-04T18:32:42.078Z,1010.52
2022-11-04T18:42:18.716Z,1010.61
2022-11-04T18:51:55.832Z,1010.57
2022-11-04T19:01:32.438Z,1010.66
2022-11-04T19:11:08.652Z,1010.82
2022-11-04T19:20:45.015Z,1010.96
2022-11-04T19:30:24.241Z,1011.19
2022-11-04T19:39:59.832Z,1011.34
2022-11-04T19:49:36.602Z,1011.5
2022-11-04T19:59:13.628Z,1011.64
2022-11-04T20:08:50.471Z,1011.76
2022-11-04T20:18:27.608Z,1011.97
2022-11-04T20:28:04.726Z,1012.09
2022-11-04T20:37:41.601Z,1012.19
2022-11-04T20:47:18.088Z,1012.29
2022-11-04T20:56:54.973Z,1012.36
2022-11-04T21:06:31.693Z,1012.39
2022-11-04T21:16:08.551Z,1012.47
2022-11-04T21:35:21.810Z,1012.67
2022-11-04T21:54:37.984Z,1012.75
2022-11-04T22:04:13.828Z,1012.72
2022-11-04T22:13:50.816Z,1012.82
2022-11-04T22:23:27.846Z,1012.9
2022-11-04T22:33:04.459Z,1012.91
2022-11-04T22:52:17.756Z,1013.13
2022-11-04T23:11:31.221Z,1013.25
2022-11-04T23:30:45.215Z,1013.37
2022-11-04T23:40:22.234Z,1013.5
2022-11-04T23:49:58.998Z,1013.56
2022-11-04T23:59:35.875Z,1013.59
